createdAt,value
2018-07-15T05:59:11.297Z,23.82
2018-07-15T06:01:39.460Z,24.58
2018-07-15T06:04:07.628Z,24.34
2018-07-15T06:06:35.708Z,23.67
2018-07-15T06:09:04.652Z,23.15
2018-07-15T06:11:32.743Z,22.76
2018-07-15T06:14:00.808Z,22.96
2018-07-15T06:16:28.876Z,22.91
2018-07-15T06:18:56.964Z,22.25
2018-07-15T06:21:25.040Z,22.58
2018-07-15T06:23:53.956Z,22.77
2018-07-15T06:26:22.034Z,22.97
2018-07-15T06:28:50.141Z,22.91
2018-07-15T06:31:18.207Z,23.42
2018-07-15T06:33:46.293Z,23.00
2018-07-15T06:36:14.381Z,22.24
2018-07-15T06:38:42.452Z,22.36
2018-07-15T06:41:10.532Z,22.80
2018-07-15T06:43:38.609Z,22.26
2018-07-15T06:46:06.748Z,22.45
2018-07-15T06:48:34.823Z,22.57
2018-07-15T06:51:02.912Z,22.63
2018-07-15T06:53:30.981Z,22.58
2018-07-15T06:55:59.112Z,22.43
2018-07-15T06:58:27.153Z,22.63
2018-07-15T07:00:55.475Z,22.86
2018-07-15T07:03:23.780Z,23.18
2018-07-15T07:05:51.976Z,23.43
2018-07-15T07:08:20.049Z,22.88
2018-07-15T07:10:48.135Z,22.96
2018-07-15T07:13:16.226Z,23.49
2018-07-15T07:15:44.322Z,23.86
2018-07-15T07:18:12.404Z,24.08
2018-07-15T07:20:40.493Z,24.12
2018-07-15T07:23:08.569Z,23.68
2018-07-15T07:25:36.996Z,23.74
2018-07-15T07:28:05.166Z,23.87
2018-07-15T07:30:33.243Z,23.73
2018-07-15T07:33:01.335Z,23.73
2018-07-15T07:35:29.490Z,23.72
2018-07-15T07:37:57.518Z,23.93
2018-07-15T07:40:25.605Z,24.12
2018-07-15T07:42:53.688Z,24.21
2018-07-15T07:45:21.853Z,24.36
2018-07-15T07:47:49.944Z,24.54
2018-07-15T07:50:18.056Z,24.85
2018-07-15T07:52:46.156Z,25.01
2018-07-15T07:55:14.220Z,25.15
2018-07-15T07:57:42.366Z,24.97
2018-07-15T08:00:10.436Z,25.10
2018-07-15T08:02:38.514Z,24.72
2018-07-15T08:05:06.612Z,24.50
2018-07-15T08:07:34.738Z,24.79
2018-07-15T08:10:03.026Z,25.03
2018-07-15T08:12:31.316Z,25.17
2018-07-15T08:14:59.395Z,25.31
2018-07-15T08:17:27.527Z,25.44
2018-07-15T08:19:56.188Z,25.71
2018-07-15T08:22:24.248Z,25.85
2018-07-15T08:24:52.345Z,26.08
2018-07-15T08:27:20.422Z,25.78
2018-07-15T08:29:59.906Z,26.06
2018-07-15T08:32:27.986Z,26.12
2018-07-15T08:34:56.092Z,26.12
2018-07-15T08:37:24.160Z,26.32
2018-07-15T08:39:52.571Z,26.65
2018-07-15T08:42:20.640Z,26.75
2018-07-15T08:44:48.716Z,26.57
2018-07-15T08:47:17.432Z,26.65
2018-07-15T08:49:45.492Z,26.72
2018-07-15T08:52:13.543Z,26.84
2018-07-15T08:54:41.665Z,26.54
2018-07-15T08:57:09.713Z,26.69
2018-07-15T08:59:37.832Z,26.68
2018-07-15T09:02:05.959Z,26.29
2018-07-15T09:04:34.044Z,26.33
2018-07-15T09:07:02.197Z,26.35
2018-07-15T09:09:30.622Z,26.41
2018-07-15T09:11:58.824Z,26.33
2018-07-15T09:14:26.895Z,26.49
2018-07-15T09:16:54.947Z,26.77
2018-07-15T09:19:23.021Z,26.92
2018-07-15T09:21:51.085Z,26.96
2018-07-15T09:24:19.132Z,26.74
2018-07-15T09:26:47.738Z,26.45
2018-07-15T09:29:15.794Z,26.35
2018-07-15T09:31:43.875Z,26.59
2018-07-15T09:34:11.969Z,26.49
2018-07-15T09:36:40.026Z,26.46
2018-07-15T09:39:08.197Z,26.62
2018-07-15T09:41:36.241Z,26.75
2018-07-15T09:44:04.338Z,26.90
2018-07-15T09:46:32.385Z,26.68
2018-07-15T09:49:00.461Z,26.93
2018-07-15T09:51:28.520Z,27.29
2018-07-15T09:53:56.608Z,27.34
2018-07-15T09:56:24.691Z,27.54
2018-07-15T09:58:52.737Z,27.48
2018-07-15T10:01:20.804Z,26.71
2018-07-15T10:03:48.876Z,26.69
2018-07-15T10:06:16.951Z,26.65
2018-07-15T10:08:45.035Z,26.83
2018-07-15T10:11:13.108Z,26.97
2018-07-15T10:13:41.175Z,27.06
2018-07-15T10:16:09.247Z,27.05
2018-07-15T10:18:37.324Z,26.95
2018-07-15T10:21:05.697Z,27.21
2018-07-15T10:23:33.772Z,27.28
2018-07-15T10:26:01.849Z,27.42
2018-07-15T10:28:29.908Z,27.50
2018-07-15T10:30:58.184Z,27.71
2018-07-15T10:33:26.255Z,27.83
2018-07-15T10:35:54.329Z,27.96
2018-07-15T10:38:22.388Z,28.00
2018-07-15T10:40:50.480Z,27.65
2018-07-15T10:43:18.524Z,27.60
2018-07-15T10:45:46.599Z,27.20
2018-07-15T10:48:14.676Z,27.41
2018-07-15T10:50:42.749Z,27.06
2018-07-15T10:53:10.821Z,26.99
2018-07-15T10:55:38.910Z,27.11
2018-07-15T10:58:07.067Z,27.34
2018-07-15T11:00:35.168Z,27.50
2018-07-15T11:03:03.246Z,27.51
2018-07-15T11:05:31.309Z,27.36
2018-07-15T11:07:59.396Z,27.39
2018-07-15T11:10:27.457Z,27.47
2018-07-15T11:12:55.550Z,27.56
2018-07-15T11:15:23.632Z,27.73
2018-07-15T11:17:51.724Z,27.85
2018-07-15T11:20:19.871Z,27.90
2018-07-15T11:22:47.954Z,28.02
2018-07-15T11:25:16.030Z,27.51
2018-07-15T11:27:44.122Z,27.43
2018-07-15T11:30:12.189Z,27.44
2018-07-15T11:32:40.330Z,27.29
2018-07-15T11:35:08.621Z,26.92
2018-07-15T11:37:37.636Z,26.59
2018-07-15T11:40:05.814Z,26.34
2018-07-15T11:42:33.884Z,26.31
2018-07-15T11:45:01.949Z,26.20
2018-07-15T11:47:30.008Z,26.19
2018-07-15T11:49:58.092Z,26.01
2018-07-15T11:52:26.156Z,25.88
2018-07-15T11:54:54.219Z,25.72
2018-07-15T11:57:22.335Z,25.76
2018-07-15T11:59:50.393Z,25.81
2018-07-15T12:02:18.467Z,25.45
2018-07-15T12:04:46.531Z,25.34
2018-07-15T12:07:14.596Z,25.11
2018-07-15T12:09:42.671Z,25.17
2018-07-15T12:12:10.744Z,25.15
2018-07-15T12:14:38.812Z,25.21
2018-07-15T12:17:06.932Z,25.14
2018-07-15T12:19:35.017Z,25.25
2018-07-15T12:22:03.068Z,25.34
2018-07-15T12:24:31.136Z,25.50
2018-07-15T12:26:59.208Z,25.49
2018-07-15T12:29:27.261Z,25.48
2018-07-15T12:31:55.311Z,25.62
2018-07-15T12:34:23.391Z,25.59
2018-07-15T12:36:51.461Z,25.82
2018-07-15T12:39:19.549Z,25.97
2018-07-15T12:41:47.605Z,26.36
2018-07-15T12:44:15.732Z,27.05
2018-07-15T12:46:43.807Z,27.34
2018-07-15T12:49:11.876Z,27.64
2018-07-15T12:51:39.936Z,27.75
2018-07-15T12:54:08.030Z,28.21
2018-07-15T12:56:36.108Z,28.24
2018-07-15T12:59:04.202Z,28.49
2018-07-15T13:01:32.248Z,28.37
2018-07-15T13:04:00.310Z,28.72
2018-07-15T13:06:28.368Z,28.46
2018-07-15T13:08:56.446Z,28.61
2018-07-15T13:11:24.512Z,28.74
2018-07-15T13:13:52.567Z,28.38
2018-07-15T13:16:20.628Z,28.55
2018-07-15T13:18:48.751Z,28.83
2018-07-15T13:21:16.834Z,29.08
2018-07-15T13:23:44.917Z,28.94
2018-07-15T13:26:12.981Z,29.07
2018-07-15T13:28:41.068Z,29.08
2018-07-15T13:31:10.212Z,29.38
2018-07-15T13:33:38.287Z,29.54
2018-07-15T13:36:06.396Z,29.20
2018-07-15T13:38:34.462Z,29.24
2018-07-15T13:41:02.744Z,29.32
2018-07-15T13:43:30.820Z,29.59
2018-07-15T13:45:58.882Z,29.42
2018-07-15T13:48:26.945Z,29.92
2018-07-15T13:50:55.027Z,30.07
2018-07-15T13:53:23.075Z,30.27
2018-07-15T13:55:51.147Z,30.14
2018-07-15T13:58:19.287Z,30.31
2018-07-15T14:00:47.447Z,30.37
2018-07-15T14:03:15.565Z,30.28
2018-07-15T14:05:43.663Z,30.27
2018-07-15T14:08:11.739Z,30.47
2018-07-15T14:10:39.890Z,30.41
2018-07-15T14:13:07.992Z,30.41
2018-07-15T14:15:36.067Z,30.08
2018-07-15T14:18:04.140Z,29.93
2018-07-15T14:20:32.224Z,30.03
2018-07-15T14:23:00.296Z,29.81
2018-07-15T14:25:28.373Z,30.38
2018-07-15T14:27:56.476Z,30.60
2018-07-15T14:30:24.550Z,30.73
2018-07-15T14:32:52.609Z,30.64
2018-07-15T14:35:20.692Z,30.75
2018-07-15T14:37:48.779Z,30.39
2018-07-15T14:40:16.828Z,30.21
2018-07-15T14:42:44.893Z,29.92
2018-07-15T14:45:12.968Z,29.96
2018-07-15T14:47:41.052Z,30.00
2018-07-15T14:50:09.123Z,29.65
2018-07-15T14:52:37.224Z,29.30
2018-07-15T14:55:05.349Z,28.79
2018-07-15T14:57:33.430Z,28.49
2018-07-15T15:00:01.506Z,27.82
2018-07-15T15:02:29.579Z,27.08
2018-07-15T15:04:58.044Z,26.72
2018-07-15T15:07:26.121Z,26.30
2018-07-15T15:09:54.185Z,24.81
2018-07-15T16:07:15.288Z,21.48
2018-07-15T16:09:43.514Z,21.34
2018-07-15T16:15:14.933Z,21.38
2018-07-15T16:17:43.057Z,21.41
2018-07-15T16:20:11.106Z,21.58
2018-07-15T16:22:39.191Z,21.61
2018-07-15T16:25:07.248Z,21.67
2018-07-15T16:27:35.366Z,21.79
2018-07-15T16:30:03.491Z,21.78
2018-07-15T16:32:31.569Z,21.67
2018-07-15T16:34:59.627Z,21.58
2018-07-15T16:37:27.732Z,21.67
2018-07-15T16:39:55.785Z,21.69
2018-07-15T16:42:23.836Z,21.39
2018-07-15T16:44:51.938Z,21.30
2018-07-15T16:47:19.982Z,21.25
2018-07-15T16:49:48.088Z,21.28
2018-07-15T16:52:16.107Z,21.28
2018-07-15T16:54:44.172Z,21.39
2018-07-15T17:33:48.631Z,19.82
2018-07-15T17:36:18.146Z,19.89
2018-07-15T17:38:46.227Z,19.77
2018-07-15T17:41:14.273Z,19.75
2018-07-15T17:43:42.576Z,19.75
2018-07-15T17:46:10.689Z,19.70
2018-07-15T17:48:38.721Z,19.84
2018-07-15T17:51:06.917Z,20.05
2018-07-15T17:53:35.475Z,19.99
2018-07-15T17:56:03.542Z,19.88
2018-07-15T17:58:31.667Z,19.87
2018-07-15T18:00:59.721Z,19.93
2018-07-15T18:03:28.107Z,19.98
2018-07-15T18:05:56.185Z,19.85
2018-07-15T18:08:24.245Z,19.91
2018-07-15T18:10:52.321Z,19.96
2018-07-15T18:13:20.377Z,20.16
2018-07-15T18:34:06.022Z,19.28
2018-07-15T18:36:34.199Z,19.07
2018-07-15T18:39:02.478Z,19.01
2018-07-15T18:53:48.105Z,18.87
2018-07-15T18:56:16.220Z,18.86
2018-07-15T18:58:44.382Z,19.00
2018-07-15T19:01:12.497Z,19.02
2018-07-15T19:03:40.580Z,18.89
2018-07-15T19:06:09.026Z,18.86
2018-07-15T19:08:36.967Z,19.01
2018-07-15T19:11:05.064Z,19.08
2018-07-15T19:13:33.141Z,18.99
2018-07-15T19:16:01.205Z,18.89
2018-07-15T19:18:29.275Z,18.88
2018-07-15T19:20:57.350Z,18.76
2018-07-15T19:23:25.404Z,18.43
2018-07-15T19:25:53.859Z,18.27
2018-07-15T19:28:21.920Z,18.14
2018-07-15T19:30:49.996Z,18.06
2018-07-15T19:33:18.064Z,17.81
2018-07-15T19:35:46.157Z,17.77
2018-07-15T19:38:14.220Z,17.91
2018-07-15T19:40:42.300Z,17.81
2018-07-15T19:43:10.415Z,17.80
2018-07-15T19:45:38.479Z,17.94
2018-07-15T19:48:07.000Z,18.00
2018-07-15T19:50:35.067Z,17.95
2018-07-15T19:53:03.413Z,17.99
2018-07-15T19:55:31.480Z,17.82
2018-07-15T20:10:11.395Z,17.98
2018-07-15T20:12:39.582Z,17.93
2018-07-15T20:18:10.738Z,18.07
2018-07-15T20:32:51.665Z,18.28
2018-07-15T20:35:19.869Z,18.31
2018-07-15T20:37:48.482Z,18.34
2018-07-15T20:40:16.680Z,18.39
2018-07-15T20:42:45.417Z,18.35
2018-07-15T20:45:13.990Z,18.47
2018-07-15T20:47:42.047Z,18.53
2018-07-15T20:50:10.120Z,18.51
2018-07-15T20:52:38.731Z,18.49
2018-07-15T20:55:06.823Z,18.57
2018-07-15T20:57:34.952Z,18.56
2018-07-15T21:00:03.380Z,18.53
2018-07-15T21:02:31.547Z,18.40
2018-07-15T21:04:59.561Z,18.26
2018-07-15T21:07:27.638Z,18.24
2018-07-15T21:09:57.103Z,18.12
2018-07-15T21:12:25.179Z,18.13
2018-07-15T21:14:53.261Z,18.11
2018-07-15T21:50:53.622Z,17.51
2018-07-15T21:53:21.890Z,17.67
2018-07-15T21:55:50.010Z,17.85
2018-07-15T21:58:18.147Z,17.79
